createdAt,value
2017-06-18T00:00:25.815Z,14.60
2017-06-18T00:02:54.691Z,14.60
2017-06-18T00:05:23.659Z,14.50
2017-06-18T00:07:52.650Z,14.50
2017-06-18T00:10:21.535Z,14.60
2017-06-18T00:12:50.419Z,14.50
2017-06-18T00:15:19.513Z,14.50
2017-06-18T00:17:48.406Z,14.50
2017-06-18T00:20:17.206Z,14.60
2017-06-18T00:22:46.295Z,14.60
2017-06-18T00:25:15.079Z,14.70
2017-06-18T00:27:44.050Z,14.60
2017-06-18T00:30:12.955Z,14.50
2017-06-18T00:32:41.847Z,14.50
2017-06-18T00:35:10.638Z,14.50
2017-06-18T00:37:39.458Z,14.50
2017-06-18T00:40:08.240Z,14.30
2017-06-18T00:42:37.090Z,14.30
2017-06-18T00:45:05.903Z,14.40
2017-06-18T00:47:34.687Z,14.50
2017-06-18T00:50:03.570Z,14.40
2017-06-18T00:52:32.427Z,14.10
2017-06-18T00:55:01.230Z,13.90
2017-06-18T00:57:30.006Z,13.90
2017-06-18T00:59:58.810Z,13.80
2017-06-18T01:02:27.698Z,13.50
2017-06-18T01:04:56.478Z,13.30
2017-06-18T01:07:25.378Z,12.70
2017-06-18T01:09:54.370Z,12.70
2017-06-18T01:12:23.266Z,12.80
2017-06-18T01:14:52.150Z,13.00
2017-06-18T01:17:21.014Z,13.20
2017-06-18T01:19:50.518Z,13.30
2017-06-18T01:22:19.322Z,13.50
2017-06-18T01:24:48.534Z,13.50
2017-06-18T01:27:17.310Z,13.30
2017-06-18T01:29:47.323Z,13.50
2017-06-18T01:32:16.142Z,13.50
2017-06-18T01:34:45.010Z,13.50
2017-06-18T01:37:13.802Z,12.70
2017-06-18T01:39:42.622Z,12.30
2017-06-18T01:42:11.481Z,12.50
2017-06-18T01:44:40.478Z,12.70
2017-06-18T01:47:09.358Z,12.80
2017-06-18T01:49:38.121Z,13.00
2017-06-18T01:52:06.906Z,13.10
2017-06-18T01:54:35.694Z,12.80
2017-06-18T01:57:04.509Z,12.60
2017-06-18T01:59:33.393Z,12.50
2017-06-18T02:02:02.190Z,12.70
2017-06-18T02:04:31.074Z,12.70
2017-06-18T02:06:59.986Z,12.70
2017-06-18T02:09:28.785Z,12.80
2017-06-18T02:11:57.646Z,12.90
2017-06-18T02:14:26.429Z,12.80
2017-06-18T02:16:55.201Z,12.10
2017-06-18T02:19:24.013Z,11.70
2017-06-18T02:21:53.014Z,11.90
2017-06-18T02:24:21.789Z,12.20
2017-06-18T02:26:50.569Z,12.30
2017-06-18T02:29:19.469Z,12.30
2017-06-18T02:31:48.397Z,11.80
2017-06-18T02:34:17.165Z,11.70
2017-06-18T02:36:46.021Z,11.80
2017-06-18T02:39:14.798Z,12.10
2017-06-18T02:41:43.577Z,12.10
2017-06-18T02:44:12.389Z,12.00
2017-06-18T02:46:41.169Z,12.10
2017-06-18T02:49:09.973Z,12.30
2017-06-18T02:51:38.769Z,12.40
2017-06-18T02:54:07.541Z,11.90
2017-06-18T02:56:36.333Z,11.30
2017-06-18T02:59:05.221Z,11.30
2017-06-18T03:01:33.993Z,11.50
2017-06-18T03:04:02.793Z,11.60
2017-06-18T03:06:31.685Z,11.30
2017-06-18T03:09:00.468Z,11.40
2017-06-18T03:11:29.285Z,11.70
2017-06-18T03:13:58.084Z,11.90
2017-06-18T03:16:26.940Z,12.00
2017-06-18T03:18:55.813Z,11.90
2017-06-18T03:21:30.468Z,11.90
2017-06-18T03:23:59.248Z,11.90
2017-06-18T03:26:28.956Z,11.80
2017-06-18T03:28:57.740Z,12.00
2017-06-18T03:31:26.516Z,12.10
2017-06-18T03:33:56.124Z,12.10
2017-06-18T03:36:24.933Z,12.20
2017-06-18T03:38:53.708Z,12.20
2017-06-18T03:41:22.588Z,12.20
2017-06-18T03:43:51.376Z,12.40
2017-06-18T03:46:20.160Z,12.30
2017-06-18T03:48:49.929Z,12.40
2017-06-18T03:51:18.772Z,12.50
2017-06-18T03:53:47.668Z,12.30
2017-06-18T03:56:16.448Z,12.30
2017-06-18T03:58:45.249Z,12.50
2017-06-18T04:01:14.024Z,12.60
2017-06-18T04:03:42.808Z,12.60
2017-06-18T04:06:11.608Z,12.80
2017-06-18T04:08:40.429Z,12.70
2017-06-18T04:11:09.296Z,12.50
2017-06-18T04:13:38.140Z,12.60
2017-06-18T04:16:06.932Z,12.50
2017-06-18T04:18:35.720Z,12.40
2017-06-18T04:21:04.529Z,12.30
2017-06-18T04:23:33.328Z,12.50
2017-06-18T04:26:02.124Z,12.60
2017-06-18T04:28:30.996Z,12.70
2017-06-18T04:30:59.784Z,12.80
2017-06-18T04:33:28.596Z,12.90
2017-06-18T04:35:57.424Z,12.70
2017-06-18T04:38:26.272Z,12.90
2017-06-18T04:40:55.051Z,13.20
2017-06-18T04:43:24.003Z,13.30
2017-06-18T04:45:52.760Z,13.20
2017-06-18T04:48:21.560Z,12.90
2017-06-18T04:50:50.399Z,12.80
2017-06-18T04:53:19.180Z,12.80
2017-06-18T04:55:47.960Z,12.80
2017-06-18T04:58:18.175Z,13.10
2017-06-18T05:00:46.977Z,13.30
2017-06-18T05:03:15.859Z,13.50
2017-06-18T05:05:45.655Z,13.70
2017-06-18T05:08:14.491Z,13.60
2017-06-18T05:10:43.455Z,13.80
2017-06-18T05:13:12.276Z,13.80
2017-06-18T05:15:41.083Z,13.80
2017-06-18T05:18:09.859Z,13.80
2017-06-18T05:20:38.691Z,14.00
2017-06-18T05:23:08.096Z,13.90
2017-06-18T05:25:36.927Z,14.10
2017-06-18T05:28:05.803Z,14.10
2017-06-18T05:30:34.647Z,14.20
2017-06-18T05:33:03.471Z,14.50
2017-06-18T05:35:32.351Z,14.30
2017-06-18T05:38:01.263Z,14.60
2017-06-18T05:40:30.055Z,14.70
2017-06-18T05:42:58.835Z,14.70
2017-06-18T05:45:27.655Z,15.10
2017-06-18T05:47:56.523Z,15.00
2017-06-18T05:50:25.319Z,15.10
2017-06-18T05:52:54.141Z,15.20
2017-06-18T05:55:22.923Z,15.50
2017-06-18T05:57:51.767Z,15.40
2017-06-18T06:00:20.527Z,15.40
2017-06-18T06:02:49.326Z,15.50
2017-06-18T06:05:18.151Z,15.70
2017-06-18T06:07:46.992Z,15.70
2017-06-18T06:10:15.783Z,15.90
2017-06-18T06:12:44.602Z,15.80
2017-06-18T06:15:13.371Z,15.80
2017-06-18T06:17:42.246Z,15.90
2017-06-18T06:20:11.063Z,16.10
2017-06-18T06:22:39.843Z,16.20
2017-06-18T06:25:08.619Z,16.30
2017-06-18T06:27:37.443Z,16.30
2017-06-18T06:30:06.287Z,16.40
2017-06-18T06:32:35.062Z,16.40
2017-06-18T06:35:03.855Z,16.60
2017-06-18T06:37:32.659Z,16.80
2017-06-18T06:40:01.534Z,16.90
2017-06-18T06:42:30.350Z,16.90
2017-06-18T06:44:59.131Z,16.90
2017-06-18T06:47:28.022Z,16.80
2017-06-18T06:49:56.834Z,16.90
2017-06-18T06:52:25.610Z,17.20
2017-06-18T06:54:54.387Z,17.20
2017-06-18T06:57:23.194Z,17.30
2017-06-18T06:59:51.986Z,17.40
2017-06-18T07:02:20.830Z,17.40
2017-06-18T07:04:49.762Z,17.40
2017-06-18T07:07:18.571Z,17.60
2017-06-18T07:09:47.362Z,17.70
2017-06-18T07:12:16.202Z,17.70
2017-06-18T07:14:45.066Z,17.90
2017-06-18T07:17:14.434Z,18.00
2017-06-18T07:19:43.206Z,18.30
2017-06-18T07:22:11.978Z,18.30
2017-06-18T07:24:40.741Z,18.20
2017-06-18T07:27:09.530Z,18.30
2017-06-18T07:29:38.386Z,18.40
2017-06-18T07:32:07.174Z,18.40
2017-06-18T07:34:35.982Z,18.60
2017-06-18T07:37:04.770Z,18.90
2017-06-18T07:39:33.538Z,18.80
2017-06-18T07:42:01.677Z,18.70
2017-06-18T07:44:30.478Z,19.10
2017-06-18T07:46:59.254Z,19.10
2017-06-18T07:49:28.094Z,19.40
2017-06-18T07:51:56.858Z,19.50
2017-06-18T07:54:25.729Z,19.40
2017-06-18T07:56:55.001Z,19.50
2017-06-18T07:59:23.869Z,19.40
2017-06-18T08:01:52.657Z,19.40
2017-06-18T08:04:21.545Z,19.60
2017-06-18T08:06:50.454Z,19.40
2017-06-18T08:09:19.233Z,19.40
2017-06-18T08:11:48.001Z,19.50
2017-06-18T08:14:16.785Z,19.40
2017-06-18T08:16:46.573Z,19.20
2017-06-18T08:19:15.461Z,19.40
2017-06-18T08:21:44.274Z,19.30
2017-06-18T08:24:13.057Z,19.40
2017-06-18T08:26:41.845Z,19.40
2017-06-18T08:29:10.612Z,19.30
2017-06-18T08:31:39.400Z,19.40
2017-06-18T08:34:08.237Z,19.20
2017-06-18T08:36:37.023Z,19.40
2017-06-18T08:39:05.905Z,19.50
2017-06-18T08:41:34.704Z,19.80
2017-06-18T08:44:03.461Z,19.70
2017-06-18T08:46:32.253Z,19.70
2017-06-18T08:49:01.024Z,19.70
2017-06-18T08:51:30.109Z,19.60
2017-06-18T08:53:59.097Z,19.60
2017-06-18T08:56:27.961Z,19.80
2017-06-18T08:58:56.720Z,19.60
2017-06-18T09:01:25.496Z,19.70
2017-06-18T09:03:54.264Z,19.70
2017-06-18T09:06:23.037Z,20.10
2017-06-18T09:08:51.842Z,20.20
2017-06-18T09:11:20.636Z,20.50
2017-06-18T09:13:49.400Z,20.40
2017-06-18T09:16:18.212Z,20.10
2017-06-18T09:18:46.992Z,20.20
2017-06-18T09:21:15.756Z,20.80
2017-06-18T09:23:44.576Z,21.20
2017-06-18T09:26:13.364Z,21.20
2017-06-18T09:28:43.048Z,21.30
2017-06-18T09:31:11.860Z,21.20
2017-06-18T09:33:40.748Z,21.00
2017-06-18T09:36:09.516Z,21.50
2017-06-18T09:38:38.276Z,21.60
2017-06-18T09:41:07.116Z,21.50
2017-06-18T09:43:35.904Z,21.50
2017-06-18T09:46:04.720Z,21.50
2017-06-18T09:48:33.536Z,21.60
2017-06-18T09:51:02.368Z,21.70
2017-06-18T09:53:31.152Z,21.40
2017-06-18T09:55:59.932Z,21.50
2017-06-18T09:58:28.704Z,21.50
2017-06-18T10:00:57.583Z,21.50
2017-06-18T10:03:26.380Z,21.40
2017-06-18T10:05:55.212Z,21.20
2017-06-18T10:08:23.999Z,21.40
2017-06-18T10:10:52.780Z,21.90
2017-06-18T10:13:21.591Z,21.80
2017-06-18T10:15:50.367Z,21.80
2017-06-18T10:18:19.236Z,22.10
2017-06-18T10:20:48.052Z,22.10
2017-06-18T10:23:33.671Z,22.20
2017-06-18T10:26:02.537Z,22.00
2017-06-18T10:28:31.327Z,21.90
2017-06-18T10:31:00.163Z,21.60
2017-06-18T10:33:29.487Z,21.90
2017-06-18T10:35:58.388Z,22.40
2017-06-18T10:38:27.191Z,23.00
2017-06-18T10:40:56.076Z,23.30
2017-06-18T10:43:24.951Z,23.50
2017-06-18T10:45:53.739Z,23.70
2017-06-18T10:48:22.655Z,23.50
2017-06-18T10:50:51.575Z,23.20
2017-06-18T10:53:20.424Z,23.60
2017-06-18T10:55:49.212Z,24.00
2017-06-18T10:58:18.007Z,24.10
2017-06-18T11:00:46.984Z,24.40
2017-06-18T11:03:15.763Z,24.40
2017-06-18T11:05:44.551Z,24.30
2017-06-18T11:08:13.483Z,23.90
2017-06-18T11:10:42.327Z,23.40
2017-06-18T11:13:11.103Z,23.30
2017-06-18T11:15:40.191Z,23.60
2017-06-18T11:18:09.171Z,24.10
2017-06-18T11:20:37.947Z,24.50
2017-06-18T11:23:06.723Z,24.60
2017-06-18T11:25:35.595Z,24.80
2017-06-18T11:28:04.351Z,24.70
2017-06-18T11:30:34.119Z,25.00
2017-06-18T11:33:02.943Z,24.80
2017-06-18T11:35:31.723Z,25.00
2017-06-18T11:38:00.534Z,25.00
2017-06-18T11:40:29.355Z,25.10
2017-06-18T11:42:58.144Z,25.20
2017-06-18T11:45:27.019Z,24.60
2017-06-18T11:47:55.883Z,24.50
2017-06-18T11:50:24.683Z,24.50
2017-06-18T11:52:53.447Z,24.20
2017-06-18T11:55:22.367Z,24.10
2017-06-18T11:57:51.191Z,24.20
2017-06-18T12:00:20.874Z,24.60
2017-06-18T12:02:49.675Z,24.40
2017-06-18T12:05:18.523Z,24.50
2017-06-18T12:07:47.346Z,24.70
2017-06-18T12:10:16.203Z,25.00
2017-06-18T12:12:45.098Z,24.70
2017-06-18T12:15:13.971Z,25.00
2017-06-18T12:17:42.758Z,25.30
2017-06-18T12:20:11.551Z,24.70
2017-06-18T12:22:40.370Z,24.50
2017-06-18T12:25:09.403Z,24.80
2017-06-18T12:27:38.326Z,25.20
2017-06-18T12:30:07.128Z,25.60
2017-06-18T12:32:36.286Z,25.60
2017-06-18T12:35:05.094Z,25.70
2017-06-18T12:37:33.893Z,25.80
2017-06-18T12:40:02.818Z,25.70
2017-06-18T12:42:32.795Z,25.70
2017-06-18T12:45:01.718Z,25.30
2017-06-18T12:47:30.675Z,25.10
2017-06-18T12:49:59.494Z,25.40
2017-06-18T12:52:28.387Z,25.10
2017-06-18T12:54:57.231Z,25.20
2017-06-18T12:57:26.002Z,24.80
2017-06-18T12:59:55.718Z,25.00
2017-06-18T13:02:24.578Z,25.30
2017-06-18T13:04:53.342Z,25.20
2017-06-18T13:07:22.178Z,25.40
2017-06-18T13:09:50.974Z,25.50
2017-06-18T13:12:19.854Z,25.50
2017-06-18T13:14:48.618Z,25.70
2017-06-18T13:17:17.482Z,25.30
2017-06-18T13:19:46.250Z,25.10
2017-06-18T13:22:15.058Z,25.10
2017-06-18T13:24:43.838Z,25.30
2017-06-18T13:27:12.710Z,25.70
2017-06-18T13:29:41.506Z,25.60
2017-06-18T13:32:10.302Z,25.50
2017-06-18T13:34:39.057Z,25.60
2017-06-18T13:37:07.834Z,25.90
2017-06-18T13:39:36.590Z,26.10
2017-06-18T13:42:05.353Z,26.20
2017-06-18T13:44:34.190Z,26.00
2017-06-18T13:47:03.014Z,26.20
2017-06-18T13:49:31.925Z,26.50
2017-06-18T13:52:00.781Z,26.50
2017-06-18T13:54:29.562Z,26.50
2017-06-18T13:56:58.361Z,26.50
2017-06-18T13:59:27.241Z,26.40
2017-06-18T14:01:57.013Z,26.30
2017-06-18T14:04:25.846Z,26.30
2017-06-18T14:06:54.630Z,26.20
2017-06-18T14:09:23.420Z,26.00
2017-06-18T14:11:52.297Z,26.00
2017-06-18T14:14:21.117Z,26.10
2017-06-18T14:16:49.902Z,26.00
2017-06-18T14:19:18.697Z,26.40
2017-06-18T14:21:47.506Z,26.60
2017-06-18T14:24:16.309Z,26.80
2017-06-18T14:26:45.130Z,26.80
2017-06-18T14:29:14.027Z,26.80
2017-06-18T14:31:42.793Z,26.30
2017-06-18T14:34:11.781Z,26.30
2017-06-18T14:36:40.605Z,26.00
2017-06-18T14:39:09.365Z,26.00
2017-06-18T14:41:38.145Z,25.80
2017-06-18T14:44:06.954Z,25.90
2017-06-18T14:46:35.707Z,25.70
2017-06-18T14:49:04.465Z,25.70
2017-06-18T14:51:33.260Z,26.00
2017-06-18T14:54:02.103Z,25.90
2017-06-18T14:56:30.913Z,26.10
2017-06-18T14:58:59.860Z,26.00
2017-06-18T15:01:28.661Z,26.40
2017-06-18T15:03:57.469Z,26.50
2017-06-18T15:06:26.345Z,26.50
2017-06-18T15:08:55.153Z,26.30
2017-06-18T15:11:24.285Z,26.30
2017-06-18T15:13:53.380Z,26.00
2017-06-18T15:16:22.268Z,26.10
2017-06-18T15:18:51.117Z,26.40
2017-06-18T15:21:19.984Z,26.80
2017-06-18T15:23:48.916Z,27.00
2017-06-18T15:26:17.757Z,26.80
2017-06-18T15:28:46.670Z,26.80
2017-06-18T15:31:15.452Z,26.60
2017-06-18T15:33:44.232Z,26.60
2017-06-18T15:36:13.136Z,26.60
2017-06-18T15:38:41.932Z,26.50
2017-06-18T15:41:10.861Z,26.50
2017-06-18T15:43:39.708Z,26.20
2017-06-18T15:46:09.180Z,26.10
2017-06-18T15:48:38.000Z,26.30
2017-06-18T15:51:06.900Z,26.40
2017-06-18T15:53:35.676Z,26.10
2017-06-18T15:56:04.644Z,25.90
2017-06-18T15:58:33.445Z,25.80
2017-06-18T16:01:02.248Z,26.30
2017-06-18T16:03:31.092Z,26.70
2017-06-18T16:05:59.960Z,26.70
2017-06-18T16:08:28.777Z,26.50
2017-06-18T16:10:57.604Z,26.50
2017-06-18T16:13:26.411Z,26.40
2017-06-18T16:15:55.300Z,26.20
2017-06-18T16:18:24.156Z,26.30
2017-06-18T16:20:52.936Z,26.50
2017-06-18T16:23:21.736Z,26.40
2017-06-18T16:25:50.547Z,26.20
2017-06-18T16:28:19.388Z,26.20
2017-06-18T16:30:48.156Z,26.10
2017-06-18T16:33:16.975Z,26.30
2017-06-18T16:35:45.756Z,26.20
2017-06-18T16:38:14.556Z,26.20
2017-06-18T16:40:43.631Z,26.20
2017-06-18T16:43:12.395Z,26.30
2017-06-18T16:45:41.152Z,26.30
2017-06-18T16:48:09.944Z,26.20
2017-06-18T16:50:38.811Z,26.20
2017-06-18T16:53:07.583Z,26.20
2017-06-18T16:55:36.387Z,26.30
2017-06-18T16:58:05.263Z,26.30
2017-06-18T17:00:34.830Z,26.30
2017-06-18T17:03:03.759Z,26.10
2017-06-18T17:05:32.555Z,26.20
2017-06-18T17:08:02.319Z,26.20
2017-06-18T17:10:31.135Z,26.00
2017-06-18T17:12:59.931Z,26.00
2017-06-18T17:15:28.707Z,25.70
2017-06-18T17:17:57.555Z,25.50
2017-06-18T17:20:26.403Z,25.70
2017-06-18T17:22:57.675Z,25.80
2017-06-18T17:25:26.483Z,26.00
2017-06-18T17:27:55.334Z,26.00
2017-06-18T17:30:24.135Z,26.00
2017-06-18T17:32:53.063Z,26.00
2017-06-18T17:35:21.859Z,26.00
2017-06-18T17:37:50.691Z,25.90
2017-06-18T17:40:19.571Z,25.70
2017-06-18T17:42:48.415Z,25.50
2017-06-18T17:45:17.271Z,25.40
2017-06-18T17:47:46.072Z,25.40
2017-06-18T17:50:14.835Z,25.40
2017-06-18T17:52:43.603Z,25.50
2017-06-18T17:55:12.436Z,25.50
2017-06-18T17:57:41.363Z,25.40
2017-06-18T18:00:10.132Z,25.40
2017-06-18T18:02:38.983Z,25.30
2017-06-18T18:05:07.767Z,25.20
2017-06-18T18:07:36.594Z,25.00
2017-06-18T18:10:05.426Z,24.80
2017-06-18T18:12:34.587Z,24.80
2017-06-18T18:15:03.403Z,24.80
2017-06-18T18:17:32.287Z,24.70
2017-06-18T18:20:02.131Z,24.70
2017-06-18T18:22:30.939Z,24.70
2017-06-18T18:24:59.782Z,24.60
2017-06-18T18:27:28.590Z,24.40
2017-06-18T18:29:57.474Z,24.50
2017-06-18T18:32:26.254Z,24.40
2017-06-18T18:34:55.039Z,24.30
2017-06-18T18:37:23.826Z,24.30
2017-06-18T18:39:52.728Z,24.20
2017-06-18T18:42:21.490Z,24.10
2017-06-18T18:44:50.270Z,24.00
2017-06-18T18:47:19.066Z,23.90
2017-06-18T18:49:47.854Z,24.00
2017-06-18T18:52:16.646Z,23.90
2017-06-18T18:54:45.462Z,23.80
2017-06-18T18:57:14.863Z,23.80
2017-06-18T18:59:43.638Z,23.70
2017-06-18T19:02:12.514Z,23.70
2017-06-18T19:04:41.338Z,23.60
2017-06-18T19:07:10.298Z,23.60
2017-06-18T19:09:39.110Z,23.50
2017-06-18T19:12:07.881Z,23.50
2017-06-18T19:14:36.642Z,23.30
2017-06-18T19:17:05.554Z,23.40
2017-06-18T19:19:34.998Z,23.20
2017-06-18T19:22:03.714Z,23.20
2017-06-18T19:24:32.529Z,23.10
2017-06-18T19:27:01.330Z,23.00
2017-06-18T19:29:30.129Z,22.90
2017-06-18T19:31:58.978Z,22.80
2017-06-18T19:34:27.741Z,22.70
2017-06-18T19:36:56.550Z,22.70
2017-06-18T19:39:25.329Z,22.50
2017-06-18T19:41:54.198Z,22.50
2017-06-18T19:44:23.073Z,22.40
2017-06-18T19:46:51.942Z,22.20
2017-06-18T19:49:20.826Z,21.90
2017-06-18T19:51:49.601Z,21.20
2017-06-18T19:54:18.369Z,20.60
2017-06-18T19:56:47.210Z,20.60
2017-06-18T19:59:15.989Z,20.70
2017-06-18T20:01:44.793Z,20.70
2017-06-18T20:04:13.649Z,20.80
2017-06-18T20:06:42.461Z,20.80
2017-06-18T20:09:11.433Z,20.80
2017-06-18T20:11:40.190Z,20.90
2017-06-18T20:14:09.829Z,20.60
2017-06-18T20:16:38.745Z,20.60
2017-06-18T20:19:07.513Z,20.70
2017-06-18T20:21:36.314Z,20.60
2017-06-18T20:24:05.121Z,20.70
2017-06-18T20:26:34.933Z,20.80
2017-06-18T20:29:03.733Z,20.70
2017-06-18T20:31:32.497Z,20.60
2017-06-18T20:34:01.398Z,20.30
2017-06-18T20:36:30.237Z,20.20
2017-06-18T20:38:59.017Z,20.30
2017-06-18T20:41:28.245Z,20.30
2017-06-18T20:43:57.025Z,20.60
2017-06-18T20:46:25.805Z,20.40
2017-06-18T20:48:54.589Z,20.30
2017-06-18T20:51:23.713Z,20.10
2017-06-18T20:53:52.489Z,20.00
2017-06-18T20:56:21.305Z,20.10
2017-06-18T20:58:50.077Z,19.80
2017-06-18T21:01:18.937Z,19.40
2017-06-18T21:03:47.708Z,18.90
2017-06-18T21:06:16.508Z,19.10
2017-06-18T21:08:45.341Z,19.00
2017-06-18T21:11:14.148Z,19.30
2017-06-18T21:13:43.024Z,19.40
2017-06-18T21:16:11.825Z,19.50
2017-06-18T21:18:40.616Z,19.60
2017-06-18T21:21:10.001Z,19.50
2017-06-18T21:23:38.804Z,19.50
2017-06-18T21:26:07.573Z,19.30
2017-06-18T21:28:36.416Z,18.90
2017-06-18T21:31:05.972Z,18.60
2017-06-18T21:33:34.812Z,18.30
2017-06-18T21:36:04.008Z,18.40
2017-06-18T21:38:33.013Z,18.40
2017-06-18T21:41:01.916Z,18.40
2017-06-18T21:43:30.793Z,18.40
2017-06-18T21:45:59.836Z,18.30
2017-06-18T21:48:28.608Z,18.00
2017-06-18T21:50:57.376Z,18.00
2017-06-18T21:53:26.176Z,18.00
2017-06-18T21:55:55.040Z,17.60
2017-06-18T21:58:23.924Z,17.70
2017-06-18T22:03:30.672Z,17.70
2017-06-18T22:05:59.499Z,17.60
2017-06-18T22:08:28.288Z,17.70
2017-06-18T22:10:57.056Z,17.70
2017-06-18T22:13:25.848Z,17.80
2017-06-18T22:15:54.623Z,18.00
2017-06-18T22:18:23.392Z,18.00
2017-06-18T22:20:52.191Z,17.70
2017-06-18T22:23:20.300Z,17.60
2017-06-18T22:25:49.084Z,17.30
2017-06-18T22:28:17.967Z,17.40
2017-06-18T22:30:46.756Z,17.40
2017-06-18T22:33:15.536Z,17.60
2017-06-18T22:35:44.340Z,17.60
2017-06-18T22:38:13.119Z,17.60
2017-06-18T22:40:41.899Z,17.40
2017-06-18T22:43:10.708Z,17.10
2017-06-18T22:45:39.812Z,17.00
2017-06-18T22:48:08.584Z,16.90
2017-06-18T22:50:37.387Z,16.80
2017-06-18T22:53:06.156Z,16.80
2017-06-18T22:55:34.931Z,16.40
2017-06-18T22:58:03.711Z,16.30
2017-06-18T23:00:32.484Z,16.20
2017-06-18T23:03:01.675Z,16.00
2017-06-18T23:05:30.508Z,16.30
2017-06-18T23:07:59.319Z,16.30
2017-06-18T23:10:28.084Z,16.60
2017-06-18T23:12:56.884Z,16.80
2017-06-18T23:15:25.655Z,16.80
2017-06-18T23:17:54.546Z,16.90
2017-06-18T23:20:23.323Z,17.00
2017-06-18T23:22:52.100Z,17.00
2017-06-18T23:25:20.859Z,17.00
2017-06-18T23:27:49.667Z,17.10
2017-06-18T23:30:18.455Z,16.90
2017-06-18T23:32:47.227Z,16.70
2017-06-18T23:35:16.027Z,16.80
2017-06-18T23:37:44.796Z,16.90
2017-06-18T23:40:13.575Z,17.10
2017-06-18T23:42:42.423Z,17.10
2017-06-18T23:45:11.411Z,17.10
2017-06-18T23:47:40.183Z,16.90
2017-06-18T23:50:08.975Z,17.00
2017-06-18T23:52:37.752Z,17.00
2017-06-18T23:55:06.567Z,16.90
2017-06-18T23:57:36.379Z,17.10
